sensor_id;sensor_type;location;lat;lon;timestamp;temperature;humidity
55721;DHT22;41626;53.098;6.168;2023-03-05T00:01:15;3.60;99.90
55721;DHT22;41626;53.098;6.168;2023-03-05T00:03:42;3.80;99.90
55721;DHT22;41626;53.098;6.168;2023-03-05T00:06:08;3.70;99.90
55721;DHT22;41626;53.098;6.168;2023-03-05T00:08:34;3.80;99.90
55721;DHT22;41626;53.098;6.168;2023-03-05T00:11:06;3.50;99.90
55721;DHT22;41626;53.098;6.168;2023-03-05T00:13:32;3.60;99.90
55721;DHT22;41626;53.098;6.168;2023-03-05T00:15:58;3.60;99.90
55721;DHT22;41626;53.098;6.168;2023-03-05T00:18:24;3.50;99.90
55721;DHT22;41626;53.098;6.168;2023-03-05T00:20:50;3.60;99.90
55721;DHT22;41626;53.098;6.168;2023-03-05T00:23:15;3.80;99.90
55721;DHT22;41626;53.098;6.168;2023-03-05T00:25:41;3.80;99.90
55721;DHT22;41626;53.098;6.168;2023-03-05T00:28:08;3.70;99.90
55721;DHT22;41626;53.098;6.168;2023-03-05T00:30:34;3.80;99.90
55721;DHT22;41626;53.098;6.168;2023-03-05T00:33:00;3.70;99.90
55721;DHT22;41626;53.098;6.168;2023-03-05T00:35:26;3.80;99.90
55721;DHT22;41626;53.098;6.168;2023-03-05T00:37:52;3.80;99.90
55721;DHT22;41626;53.098;6.168;2023-03-05T00:40:18;3.80;99.90
55721;DHT22;41626;53.098;6.168;2023-03-05T00:42:44;3.80;99.90
55721;DHT22;41626;53.098;6.168;2023-03-05T00:45:10;3.80;99.90
55721;DHT22;41626;53.098;6.168;2023-03-05T00:47:36;3.90;99.90
55721;DHT22;41626;53.098;6.168;2023-03-05T00:50:03;3.70;99.90
55721;DHT22;41626;53.098;6.168;2023-03-05T00:52:29;3.70;99.90
55721;DHT22;41626;53.098;6.168;2023-03-05T00:54:54;3.70;99.90
55721;DHT22;41626;53.098;6.168;2023-03-05T00:57:20;3.60;99.90
55721;DHT22;41626;53.098;6.168;2023-03-05T00:59:46;3.70;99.90
55721;DHT22;41626;53.098;6.168;2023-03-05T01:02:11;3.50;99.90
55721;DHT22;41626;53.098;6.168;2023-03-05T01:04:37;3.50;99.90
55721;DHT22;41626;53.098;6.168;2023-03-05T01:07:03;3.30;99.90
55721;DHT22;41626;53.098;6.168;2023-03-05T01:09:29;3.30;99.90
55721;DHT22;41626;53.098;6.168;2023-03-05T01:11:55;3.50;99.90
55721;DHT22;41626;53.098;6.168;2023-03-05T01:14:20;3.50;99.90
55721;DHT22;41626;53.098;6.168;2023-03-05T01:16:47;3.50;99.90
55721;DHT22;41626;53.098;6.168;2023-03-05T01:19:14;3.50;99.90
55721;DHT22;41626;53.098;6.168;2023-03-05T01:21:40;3.40;99.90
55721;DHT22;41626;53.098;6.168;2023-03-05T01:24:06;3.40;99.90
55721;DHT22;41626;53.098;6.168;2023-03-05T01:26:32;3.50;99.90
55721;DHT22;41626;53.098;6.168;2023-03-05T01:28:59;3.40;99.90
55721;DHT22;41626;53.098;6.168;2023-03-05T01:31:24;3.30;99.90
55721;DHT22;41626;53.098;6.168;2023-03-05T01:33:51;3.40;99.90
55721;DHT22;41626;53.098;6.168;2023-03-05T01:36:17;3.40;99.90
55721;DHT22;41626;53.098;6.168;2023-03-05T01:38:45;3.30;99.90
55721;DHT22;41626;53.098;6.168;2023-03-05T01:41:13;3.40;99.90
55721;DHT22;41626;53.098;6.168;2023-03-05T01:43:39;3.30;99.90
55721;DHT22;41626;53.098;6.168;2023-03-05T01:49:06;3.30;99.90
55721;DHT22;41626;53.098;6.168;2023-03-05T01:54:20;3.20;99.90
55721;DHT22;41626;53.098;6.168;2023-03-05T01:56:47;3.20;99.90
55721;DHT22;41626;53.098;6.168;2023-03-05T01:59:15;3.20;99.90
55721;DHT22;41626;53.098;6.168;2023-03-05T02:01:45;3.10;99.90
55721;DHT22;41626;53.098;6.168;2023-03-05T02:04:16;3.20;99.90
55721;DHT22;41626;53.098;6.168;2023-03-05T02:06:44;3.10;99.90
55721;DHT22;41626;53.098;6.168;2023-03-05T02:09:10;3.10;99.90
55721;DHT22;41626;53.098;6.168;2023-03-05T02:11:36;3.20;99.90
55721;DHT22;41626;53.098;6.168;2023-03-05T02:14:03;3.20;99.90
55721;DHT22;41626;53.098;6.168;2023-03-05T02:16:29;3.30;99.90
55721;DHT22;41626;53.098;6.168;2023-03-05T02:19:06;3.20;99.90
55721;DHT22;41626;53.098;6.168;2023-03-05T02:21:39;3.30;99.90
55721;DHT22;41626;53.098;6.168;2023-03-05T02:24:05;3.20;99.90
55721;DHT22;41626;53.098;6.168;2023-03-05T02:26:31;3.30;99.90
55721;DHT22;41626;53.098;6.168;2023-03-05T02:29:00;3.40;99.90
55721;DHT22;41626;53.098;6.168;2023-03-05T02:31:26;3.30;99.90
55721;DHT22;41626;53.098;6.168;2023-03-05T02:33:52;3.50;99.90
55721;DHT22;41626;53.098;6.168;2023-03-05T02:36:18;3.30;99.90
55721;DHT22;41626;53.098;6.168;2023-03-05T02:38:44;3.40;99.90
55721;DHT22;41626;53.098;6.168;2023-03-05T02:41:11;3.40;99.90
55721;DHT22;41626;53.098;6.168;2023-03-05T02:43:37;3.30;99.90
55721;DHT22;41626;53.098;6.168;2023-03-05T02:46:03;3.40;99.90
55721;DHT22;41626;53.098;6.168;2023-03-05T02:48:29;3.30;99.90
55721;DHT22;41626;53.098;6.168;2023-03-05T02:50:55;3.20;99.90
55721;DHT22;41626;53.098;6.168;2023-03-05T02:53:21;3.20;99.90
55721;DHT22;41626;53.098;6.168;2023-03-05T02:55:48;3.40;99.90
55721;DHT22;41626;53.098;6.168;2023-03-05T02:58:14;3.30;99.90
55721;DHT22;41626;53.098;6.168;2023-03-05T03:00:40;3.50;99.90
55721;DHT22;41626;53.098;6.168;2023-03-05T03:03:06;3.50;99.90
55721;DHT22;41626;53.098;6.168;2023-03-05T03:05:32;3.40;99.90
55721;DHT22;41626;53.098;6.168;2023-03-05T03:07:57;3.60;99.90
55721;DHT22;41626;53.098;6.168;2023-03-05T03:10:23;3.50;99.90
55721;DHT22;41626;53.098;6.168;2023-03-05T03:12:49;3.60;99.90
55721;DHT22;41626;53.098;6.168;2023-03-05T03:15:15;3.50;99.90
55721;DHT22;41626;53.098;6.168;2023-03-05T03:17:41;3.30;99.90
55721;DHT22;41626;53.098;6.168;2023-03-05T03:20:10;3.10;99.90
55721;DHT22;41626;53.098;6.168;2023-03-05T03:22:38;3.10;99.90
55721;DHT22;41626;53.098;6.168;2023-03-05T03:25:04;3.10;99.90
55721;DHT22;41626;53.098;6.168;2023-03-05T03:27:30;3.10;99.90
55721;DHT22;41626;53.098;6.168;2023-03-05T03:29:56;3.00;99.90
55721;DHT22;41626;53.098;6.168;2023-03-05T03:32:25;3.10;99.90
55721;DHT22;41626;53.098;6.168;2023-03-05T03:34:50;3.00;99.90
55721;DHT22;41626;53.098;6.168;2023-03-05T03:37:16;3.10;99.90
55721;DHT22;41626;53.098;6.168;2023-03-05T03:39:42;3.10;99.90
55721;DHT22;41626;53.098;6.168;2023-03-05T03:42:07;3.00;99.90
55721;DHT22;41626;53.098;6.168;2023-03-05T03:44:33;3.00;99.90
55721;DHT22;41626;53.098;6.168;2023-03-05T03:46:59;3.10;99.90
55721;DHT22;41626;53.098;6.168;2023-03-05T03:49:25;3.10;99.90
55721;DHT22;41626;53.098;6.168;2023-03-05T03:51:52;3.10;99.90
55721;DHT22;41626;53.098;6.168;2023-03-05T03:54:22;3.30;99.90
55721;DHT22;41626;53.098;6.168;2023-03-05T03:56:48;3.40;99.90
55721;DHT22;41626;53.098;6.168;2023-03-05T03:59:14;3.40;99.90
55721;DHT22;41626;53.098;6.168;2023-03-05T04:01:40;3.50;99.90
55721;DHT22;41626;53.098;6.168;2023-03-05T04:04:06;3.40;99.90
55721;DHT22;41626;53.098;6.168;2023-03-05T04:06:32;3.30;99.90
55721;DHT22;41626;53.098;6.168;2023-03-05T04:08:58;3.30;99.90
55721;DHT22;41626;53.098;6.168;2023-03-05T04:11:24;3.50;99.90
55721;DHT22;41626;53.098;6.168;2023-03-05T04:13:50;3.60;99.90
55721;DHT22;41626;53.098;6.168;2023-03-05T04:16:16;3.40;99.90
55721;DHT22;41626;53.098;6.168;2023-03-05T04:18:44;3.50;99.90
55721;DHT22;41626;53.098;6.168;2023-03-05T04:21:10;3.40;99.90
55721;DHT22;41626;53.098;6.168;2023-03-05T04:23:36;3.40;99.90
55721;DHT22;41626;53.098;6.168;2023-03-05T04:26:01;3.50;99.90
55721;DHT22;41626;53.098;6.168;2023-03-05T04:28:27;3.40;99.90
55721;DHT22;41626;53.098;6.168;2023-03-05T04:30:53;3.30;99.90
55721;DHT22;41626;53.098;6.168;2023-03-05T04:33:19;3.30;99.90
55721;DHT22;41626;53.098;6.168;2023-03-05T04:35:44;3.20;99.90
55721;DHT22;41626;53.098;6.168;2023-03-05T04:38:10;3.20;99.90
55721;DHT22;41626;53.098;6.168;2023-03-05T04:40:36;3.30;99.90
55721;DHT22;41626;53.098;6.168;2023-03-05T04:43:02;3.30;99.90
55721;DHT22;41626;53.098;6.168;2023-03-05T04:45:28;3.40;99.90
55721;DHT22;41626;53.098;6.168;2023-03-05T04:47:54;3.30;99.90
55721;DHT22;41626;53.098;6.168;2023-03-05T04:50:20;3.30;99.90
55721;DHT22;41626;53.098;6.168;2023-03-05T04:52:46;3.20;99.90
55721;DHT22;41626;53.098;6.168;2023-03-05T04:55:13;3.10;99.90
55721;DHT22;41626;53.098;6.168;2023-03-05T04:57:39;3.10;99.90
55721;DHT22;41626;53.098;6.168;2023-03-05T05:00:07;3.10;99.90
55721;DHT22;41626;53.098;6.168;2023-03-05T05:02:39;3.20;99.90
55721;DHT22;41626;53.098;6.168;2023-03-05T05:05:05;3.20;99.90
55721;DHT22;41626;53.098;6.168;2023-03-05T05:07:31;3.10;99.90
55721;DHT22;41626;53.098;6.168;2023-03-05T05:09:57;3.30;99.90
55721;DHT22;41626;53.098;6.168;2023-03-05T05:12:23;3.30;99.90
55721;DHT22;41626;53.098;6.168;2023-03-05T05:14:48;3.30;99.90
55721;DHT22;41626;53.098;6.168;2023-03-05T05:17:14;3.30;99.90
55721;DHT22;41626;53.098;6.168;2023-03-05T05:19:40;3.40;99.90
55721;DHT22;41626;53.098;6.168;2023-03-05T05:22:05;3.50;99.90
55721;DHT22;41626;53.098;6.168;2023-03-05T05:24:31;3.60;99.90
55721;DHT22;41626;53.098;6.168;2023-03-05T05:26:57;3.60;99.90
55721;DHT22;41626;53.098;6.168;2023-03-05T05:29:22;3.60;99.90
55721;DHT22;41626;53.098;6.168;2023-03-05T05:31:48;3.50;99.90
55721;DHT22;41626;53.098;6.168;2023-03-05T05:34:15;3.40;99.90
55721;DHT22;41626;53.098;6.168;2023-03-05T05:36:40;3.60;99.90
55721;DHT22;41626;53.098;6.168;2023-03-05T05:39:06;3.40;99.90
55721;DHT22;41626;53.098;6.168;2023-03-05T05:41:32;3.40;99.90
55721;DHT22;41626;53.098;6.168;2023-03-05T05:43:57;3.40;99.90
55721;DHT22;41626;53.098;6.168;2023-03-05T05:46:23;3.40;99.90
55721;DHT22;41626;53.098;6.168;2023-03-05T05:48:49;3.20;99.90
55721;DHT22;41626;53.098;6.168;2023-03-05T05:51:18;3.30;99.90
55721;DHT22;41626;53.098;6.168;2023-03-05T05:53:44;3.20;99.90
55721;DHT22;41626;53.098;6.168;2023-03-05T05:56:11;3.20;99.90
55721;DHT22;41626;53.098;6.168;2023-03-05T05:58:38;3.10;99.90
55721;DHT22;41626;53.098;6.168;2023-03-05T06:01:23;3.10;99.90
55721;DHT22;41626;53.098;6.168;2023-03-05T06:03:49;2.90;99.90
55721;DHT22;41626;53.098;6.168;2023-03-05T06:06:17;3.00;99.90
55721;DHT22;41626;53.098;6.168;2023-03-05T06:08:43;2.90;99.90
55721;DHT22;41626;53.098;6.168;2023-03-05T06:11:09;3.10;99.90
55721;DHT22;41626;53.098;6.168;2023-03-05T06:13:35;2.80;99.90
55721;DHT22;41626;53.098;6.168;2023-03-05T06:16:04;2.90;99.90
55721;DHT22;41626;53.098;6.168;2023-03-05T06:18:31;2.70;99.90
55721;DHT22;41626;53.098;6.168;2023-03-05T06:20:59;2.80;99.90
55721;DHT22;41626;53.098;6.168;2023-03-05T06:23:27;2.80;99.90
55721;DHT22;41626;53.098;6.168;2023-03-05T06:25:53;2.70;99.90
55721;DHT22;41626;53.098;6.168;2023-03-05T06:28:19;2.80;99.90
55721;DHT22;41626;53.098;6.168;2023-03-05T06:30:45;2.80;99.90
55721;DHT22;41626;53.098;6.168;2023-03-05T06:33:12;2.80;99.90
55721;DHT22;41626;53.098;6.168;2023-03-05T06:35:38;2.80;99.90
55721;DHT22;41626;53.098;6.168;2023-03-05T06:38:07;2.70;99.90
55721;DHT22;41626;53.098;6.168;2023-03-05T06:40:33;2.80;99.90
55721;DHT22;41626;53.098;6.168;2023-03-05T06:42:59;2.70;99.90
55721;DHT22;41626;53.098;6.168;2023-03-05T06:45:25;2.80;99.90
55721;DHT22;41626;53.098;6.168;2023-03-05T06:47:51;2.80;99.90
55721;DHT22;41626;53.098;6.168;2023-03-05T06:50:17;2.70;99.90
55721;DHT22;41626;53.098;6.168;2023-03-05T06:52:43;2.90;99.90
55721;DHT22;41626;53.098;6.168;2023-03-05T06:55:09;2.80;99.90
55721;DHT22;41626;53.098;6.168;2023-03-05T06:57:35;2.90;99.90
55721;DHT22;41626;53.098;6.168;2023-03-05T07:00:03;2.70;99.90
55721;DHT22;41626;53.098;6.168;2023-03-05T07:02:33;2.80;99.90
55721;DHT22;41626;53.098;6.168;2023-03-05T07:04:59;2.90;99.90
55721;DHT22;41626;53.098;6.168;2023-03-05T07:07:25;3.00;99.90
55721;DHT22;41626;53.098;6.168;2023-03-05T07:09:50;3.10;99.90
55721;DHT22;41626;53.098;6.168;2023-03-05T07:12:18;2.90;99.90
55721;DHT22;41626;53.098;6.168;2023-03-05T07:14:43;3.20;99.90
55721;DHT22;41626;53.098;6.168;2023-03-05T07:17:09;3.10;99.90
55721;DHT22;41626;53.098;6.168;2023-03-05T07:19:35;3.20;99.90
55721;DHT22;41626;53.098;6.168;2023-03-05T07:22:02;3.10;99.90
55721;DHT22;41626;53.098;6.168;2023-03-05T07:24:27;3.20;99.90
55721;DHT22;41626;53.098;6.168;2023-03-05T07:26:55;3.10;99.90
55721;DHT22;41626;53.098;6.168;2023-03-05T07:29:22;3.30;99.90
55721;DHT22;41626;53.098;6.168;2023-03-05T07:31:48;3.30;99.90
55721;DHT22;41626;53.098;6.168;2023-03-05T07:34:14;3.10;99.90
55721;DHT22;41626;53.098;6.168;2023-03-05T07:36:40;3.20;99.90
55721;DHT22;41626;53.098;6.168;2023-03-05T07:39:07;3.30;99.90
55721;DHT22;41626;53.098;6.168;2023-03-05T07:41:33;3.10;99.90
55721;DHT22;41626;53.098;6.168;2023-03-05T07:43:59;3.10;99.90
55721;DHT22;41626;53.098;6.168;2023-03-05T07:46:28;3.20;99.90
55721;DHT22;41626;53.098;6.168;2023-03-05T07:48:54;3.10;99.90
55721;DHT22;41626;53.098;6.168;2023-03-05T07:51:21;3.30;99.90
55721;DHT22;41626;53.098;6.168;2023-03-05T07:53:48;3.30;99.90
55721;DHT22;41626;53.098;6.168;2023-03-05T07:56:38;3.40;99.90
55721;DHT22;41626;53.098;6.168;2023-03-05T07:59:06;3.40;99.90
55721;DHT22;41626;53.098;6.168;2023-03-05T08:01:33;3.50;99.90
55721;DHT22;41626;53.098;6.168;2023-03-05T08:04:01;3.50;99.90
55721;DHT22;41626;53.098;6.168;2023-03-05T08:06:27;3.60;99.90
55721;DHT22;41626;53.098;6.168;2023-03-05T08:08:53;3.70;99.90
55721;DHT22;41626;53.098;6.168;2023-03-05T08:11:18;3.70;99.90
55721;DHT22;41626;53.098;6.168;2023-03-05T08:13:44;4.00;99.90
55721;DHT22;41626;53.098;6.168;2023-03-05T08:16:16;4.10;99.90
55721;DHT22;41626;53.098;6.168;2023-03-05T08:18:42;4.20;99.90
55721;DHT22;41626;53.098;6.168;2023-03-05T08:21:19;4.20;99.90
55721;DHT22;41626;53.098;6.168;2023-03-05T08:23:45;4.40;99.90
55721;DHT22;41626;53.098;6.168;2023-03-05T08:26:17;4.30;99.90
55721;DHT22;41626;53.098;6.168;2023-03-05T08:28:43;4.50;99.90
55721;DHT22;41626;53.098;6.168;2023-03-05T08:31:13;4.70;99.90
55721;DHT22;41626;53.098;6.168;2023-03-05T08:33:39;4.70;99.90
55721;DHT22;41626;53.098;6.168;2023-03-05T08:36:06;4.90;99.90
55721;DHT22;41626;53.098;6.168;2023-03-05T08:38:33;4.90;99.90
55721;DHT22;41626;53.098;6.168;2023-03-05T08:40:58;4.90;99.90
55721;DHT22;41626;53.098;6.168;2023-03-05T08:43:24;5.10;99.90
55721;DHT22;41626;53.098;6.168;2023-03-05T08:45:50;5.10;99.90
55721;DHT22;41626;53.098;6.168;2023-03-05T08:48:18;5.20;99.90
55721;DHT22;41626;53.098;6.168;2023-03-05T08:50:44;5.20;99.90
55721;DHT22;41626;53.098;6.168;2023-03-05T08:53:10;5.30;99.90
55721;DHT22;41626;53.098;6.168;2023-03-05T08:55:36;5.30;99.90
55721;DHT22;41626;53.098;6.168;2023-03-05T08:58:02;5.40;99.90
55721;DHT22;41626;53.098;6.168;2023-03-05T09:00:28;5.40;99.90
55721;DHT22;41626;53.098;6.168;2023-03-05T09:02:54;5.60;99.90
55721;DHT22;41626;53.098;6.168;2023-03-05T09:05:20;5.30;99.90
55721;DHT22;41626;53.098;6.168;2023-03-05T09:07:46;5.50;99.90
55721;DHT22;41626;53.098;6.168;2023-03-05T09:10:12;5.60;99.90
55721;DHT22;41626;53.098;6.168;2023-03-05T09:12:40;5.50;99.90
55721;DHT22;41626;53.098;6.168;2023-03-05T09:15:07;5.70;99.90
55721;DHT22;41626;53.098;6.168;2023-03-05T09:17:34;5.80;99.90
55721;DHT22;41626;53.098;6.168;2023-03-05T09:20:00;5.60;99.90
55721;DHT22;41626;53.098;6.168;2023-03-05T09:22:27;5.90;99.90
55721;DHT22;41626;53.098;6.168;2023-03-05T09:24:52;5.90;99.90
55721;DHT22;41626;53.098;6.168;2023-03-05T09:27:18;5.90;99.90
55721;DHT22;41626;53.098;6.168;2023-03-05T09:29:43;6.10;99.90
55721;DHT22;41626;53.098;6.168;2023-03-05T09:32:09;6.10;99.90
55721;DHT22;41626;53.098;6.168;2023-03-05T09:34:35;6.20;99.90
55721;DHT22;41626;53.098;6.168;2023-03-05T09:37:02;6.20;99.90
55721;DHT22;41626;53.098;6.168;2023-03-05T09:39:28;6.10;99.90
55721;DHT22;41626;53.098;6.168;2023-03-05T09:42:41;6.10;99.90
55721;DHT22;41626;53.098;6.168;2023-03-05T09:45:02;6.00;99.90
55721;DHT22;41626;53.098;6.168;2023-03-05T09:55:21;4.90;99.90
55721;DHT22;41626;53.098;6.168;2023-03-05T09:57:51;5.20;99.90
55721;DHT22;41626;53.098;6.168;2023-03-05T10:02:54;5.20;99.90
55721;DHT22;41626;53.098;6.168;2023-03-05T10:08:16;5.50;99.90
55721;DHT22;41626;53.098;6.168;2023-03-05T10:10:46;5.60;99.90
55721;DHT22;41626;53.098;6.168;2023-03-05T10:13:36;5.50;99.90
55721;DHT22;41626;53.098;6.168;2023-03-05T10:27:19;6.70;99.90
55721;DHT22;41626;53.098;6.168;2023-03-05T10:33:05;6.40;99.90
55721;DHT22;41626;53.098;6.168;2023-03-05T10:38:40;6.20;99.90
55721;DHT22;41626;53.098;6.168;2023-03-05T10:41:32;6.20;99.90
55721;DHT22;41626;53.098;6.168;2023-03-05T10:44:04;6.40;99.90
55721;DHT22;41626;53.098;6.168;2023-03-05T10:46:34;6.50;99.90
55721;DHT22;41626;53.098;6.168;2023-03-05T10:49:23;6.90;99.90
55721;DHT22;41626;53.098;6.168;2023-03-05T10:52:05;7.00;99.90
55721;DHT22;41626;53.098;6.168;2023-03-05T10:54:34;7.00;99.90
55721;DHT22;41626;53.098;6.168;2023-03-05T10:57:24;7.00;99.90
55721;DHT22;41626;53.098;6.168;2023-03-05T11:02:25;7.10;99.90
55721;DHT22;41626;53.098;6.168;2023-03-05T11:04:51;7.30;99.90
55721;DHT22;41626;53.098;6.168;2023-03-05T11:10:14;7.30;99.90
55721;DHT22;41626;53.098;6.168;2023-03-05T11:12:40;7.30;99.90
55721;DHT22;41626;53.098;6.168;2023-03-05T11:18:17;6.80;99.90
55721;DHT22;41626;53.098;6.168;2023-03-05T11:20:43;6.70;99.90
55721;DHT22;41626;53.098;6.168;2023-03-05T11:23:16;6.90;99.90
55721;DHT22;41626;53.098;6.168;2023-03-05T11:26:00;6.90;99.90
55721;DHT22;41626;53.098;6.168;2023-03-05T11:28:38;7.00;99.90
55721;DHT22;41626;53.098;6.168;2023-03-05T11:34:01;7.00;99.90
55721;DHT22;41626;53.098;6.168;2023-03-05T11:36:31;7.20;99.90
55721;DHT22;41626;53.098;6.168;2023-03-05T11:44:34;7.30;99.90
55721;DHT22;41626;53.098;6.168;2023-03-05T11:49:45;7.50;99.90
55721;DHT22;41626;53.098;6.168;2023-03-05T11:52:22;7.60;99.90
55721;DHT22;41626;53.098;6.168;2023-03-05T11:55:15;7.70;99.90
55721;DHT22;41626;53.098;6.168;2023-03-05T11:57:52;7.60;99.90
55721;DHT22;41626;53.098;6.168;2023-03-05T12:00:29;7.70;99.90
55721;DHT22;41626;53.098;6.168;2023-03-05T12:02:57;7.60;99.90
55721;DHT22;41626;53.098;6.168;2023-03-05T12:05:23;7.60;99.90
55721;DHT22;41626;53.098;6.168;2023-03-05T12:07:52;7.60;99.90
55721;DHT22;41626;53.098;6.168;2023-03-05T12:10:22;7.40;99.90
55721;DHT22;41626;53.098;6.168;2023-03-05T12:13:03;7.30;99.90
55721;DHT22;41626;53.098;6.168;2023-03-05T12:16:08;7.40;99.90
55721;DHT22;41626;53.098;6.168;2023-03-05T12:23:58;7.30;99.90
55721;DHT22;41626;53.098;6.168;2023-03-05T12:27:30;7.30;99.90
55721;DHT22;41626;53.098;6.168;2023-03-05T12:29:50;7.40;99.90
55721;DHT22;41626;53.098;6.168;2023-03-05T12:34:59;7.20;99.90
55721;DHT22;41626;53.098;6.168;2023-03-05T12:47:44;7.10;99.90
55721;DHT22;41626;53.098;6.168;2023-03-05T12:53:18;7.20;99.90
55721;DHT22;41626;53.098;6.168;2023-03-05T13:03:36;7.60;99.90
55721;DHT22;41626;53.098;6.168;2023-03-05T13:06:03;7.60;99.90
55721;DHT22;41626;53.098;6.168;2023-03-05T13:08:32;7.70;99.90
55721;DHT22;41626;53.098;6.168;2023-03-05T13:11:08;7.70;99.90
55721;DHT22;41626;53.098;6.168;2023-03-05T13:13:36;7.50;99.90
55721;DHT22;41626;53.098;6.168;2023-03-05T13:16:03;7.30;99.90
55721;DHT22;41626;53.098;6.168;2023-03-05T13:18:30;7.30;99.90
55721;DHT22;41626;53.098;6.168;2023-03-05T13:21:14;7.10;99.90
55721;DHT22;41626;53.098;6.168;2023-03-05T13:23:52;7.40;99.90
55721;DHT22;41626;53.098;6.168;2023-03-05T13:26:27;7.30;99.90
55721;DHT22;41626;53.098;6.168;2023-03-05T13:29:08;7.40;99.90
55721;DHT22;41626;53.098;6.168;2023-03-05T13:31:35;7.50;99.90
55721;DHT22;41626;53.098;6.168;2023-03-05T13:34:22;7.60;99.90
55721;DHT22;41626;53.098;6.168;2023-03-05T13:39:26;7.70;99.90
55721;DHT22;41626;53.098;6.168;2023-03-05T13:42:01;7.70;99.90
55721;DHT22;41626;53.098;6.168;2023-03-05T13:44:27;7.60;99.90
55721;DHT22;41626;53.098;6.168;2023-03-05T13:47:11;7.60;99.90
55721;DHT22;41626;53.098;6.168;2023-03-05T13:49:38;7.50;99.90
55721;DHT22;41626;53.098;6.168;2023-03-05T13:52:04;7.40;99.90
55721;DHT22;41626;53.098;6.168;2023-03-05T13:54:30;7.20;99.90
55721;DHT22;41626;53.098;6.168;2023-03-05T13:57:05;7.30;99.90
55721;DHT22;41626;53.098;6.168;2023-03-05T13:59:34;7.20;99.90
55721;DHT22;41626;53.098;6.168;2023-03-05T14:02:15;7.30;99.90
55721;DHT22;41626;53.098;6.168;2023-03-05T14:04:43;7.20;99.90
55721;DHT22;41626;53.098;6.168;2023-03-05T14:09:48;7.30;99.90
55721;DHT22;41626;53.098;6.168;2023-03-05T14:12:24;7.20;99.90
55721;DHT22;41626;53.098;6.168;2023-03-05T14:14:56;7.10;99.90
55721;DHT22;41626;53.098;6.168;2023-03-05T14:17:38;7.20;99.90
55721;DHT22;41626;53.098;6.168;2023-03-05T14:22:36;7.00;99.90
55721;DHT22;41626;53.098;6.168;2023-03-05T14:25:04;6.90;99.90
55721;DHT22;41626;53.098;6.168;2023-03-05T14:27:34;6.70;99.90
55721;DHT22;41626;53.098;6.168;2023-03-05T14:30:02;6.50;99.90
55721;DHT22;41626;53.098;6.168;2023-03-05T14:32:34;6.50;99.90
55721;DHT22;41626;53.098;6.168;2023-03-05T14:35:03;6.50;99.90
55721;DHT22;41626;53.098;6.168;2023-03-05T14:37:36;6.60;99.90
55721;DHT22;41626;53.098;6.168;2023-03-05T14:40:06;6.60;99.90
55721;DHT22;41626;53.098;6.168;2023-03-05T14:45:14;6.80;99.90
55721;DHT22;41626;53.098;6.168;2023-03-05T14:47:40;6.90;99.90
55721;DHT22;41626;53.098;6.168;2023-03-05T14:50:09;7.10;99.90
55721;DHT22;41626;53.098;6.168;2023-03-05T14:52:35;7.00;99.90
55721;DHT22;41626;53.098;6.168;2023-03-05T14:55:01;6.80;99.90
55721;DHT22;41626;53.098;6.168;2023-03-05T14:57:27;6.90;99.90
55721;DHT22;41626;53.098;6.168;2023-03-05T14:59:55;6.70;99.90
55721;DHT22;41626;53.098;6.168;2023-03-05T15:02:23;6.50;99.90
55721;DHT22;41626;53.098;6.168;2023-03-05T15:04:49;6.60;99.90
55721;DHT22;41626;53.098;6.168;2023-03-05T15:07:28;6.50;99.90
55721;DHT22;41626;53.098;6.168;2023-03-05T15:09:54;6.80;99.90
55721;DHT22;41626;53.098;6.168;2023-03-05T15:12:20;7.20;99.90
55721;DHT22;41626;53.098;6.168;2023-03-05T15:14:52;6.90;99.90
55721;DHT22;41626;53.098;6.168;2023-03-05T15:17:35;7.10;99.90
55721;DHT22;41626;53.098;6.168;2023-03-05T15:20:04;7.30;99.90
55721;DHT22;41626;53.098;6.168;2023-03-05T15:22:34;7.40;99.90
55721;DHT22;41626;53.098;6.168;2023-03-05T15:25:00;7.20;99.90
55721;DHT22;41626;53.098;6.168;2023-03-05T15:27:26;7.20;99.90
55721;DHT22;41626;53.098;6.168;2023-03-05T15:29:52;7.20;99.90
55721;DHT22;41626;53.098;6.168;2023-03-05T15:32:17;7.10;99.90
55721;DHT22;41626;53.098;6.168;2023-03-05T15:34:43;7.00;99.90
55721;DHT22;41626;53.098;6.168;2023-03-05T15:37:10;6.90;99.90
55721;DHT22;41626;53.098;6.168;2023-03-05T15:39:36;6.80;99.90
55721;DHT22;41626;53.098;6.168;2023-03-05T15:42:02;6.70;99.90
55721;DHT22;41626;53.098;6.168;2023-03-05T15:44:29;6.70;99.90
55721;DHT22;41626;53.098;6.168;2023-03-05T15:46:54;6.70;99.90
55721;DHT22;41626;53.098;6.168;2023-03-05T15:49:21;6.70;99.90
55721;DHT22;41626;53.098;6.168;2023-03-05T15:51:49;6.90;99.90
55721;DHT22;41626;53.098;6.168;2023-03-05T15:54:15;6.50;99.90
55721;DHT22;41626;53.098;6.168;2023-03-05T15:56:41;6.30;99.90
55721;DHT22;41626;53.098;6.168;2023-03-05T15:59:07;6.20;99.90
55721;DHT22;41626;53.098;6.168;2023-03-05T16:01:35;6.40;99.90
55721;DHT22;41626;53.098;6.168;2023-03-05T16:04:01;6.50;99.90
55721;DHT22;41626;53.098;6.168;2023-03-05T16:06:27;6.50;99.90
55721;DHT22;41626;53.098;6.168;2023-03-05T16:09:03;6.50;99.90
55721;DHT22;41626;53.098;6.168;2023-03-05T16:11:32;6.40;99.90
55721;DHT22;41626;53.098;6.168;2023-03-05T16:14:03;6.20;99.90
55721;DHT22;41626;53.098;6.168;2023-03-05T16:16:29;6.00;99.90
55721;DHT22;41626;53.098;6.168;2023-03-05T16:18:56;6.00;99.90
55721;DHT22;41626;53.098;6.168;2023-03-05T16:21:22;5.90;99.90
55721;DHT22;41626;53.098;6.168;2023-03-05T16:23:48;5.90;99.90
55721;DHT22;41626;53.098;6.168;2023-03-05T16:26:14;5.70;99.90
55721;DHT22;41626;53.098;6.168;2023-03-05T16:28:40;5.70;99.90
55721;DHT22;41626;53.098;6.168;2023-03-05T16:31:06;5.80;99.90
55721;DHT22;41626;53.098;6.168;2023-03-05T16:33:31;5.90;99.90
55721;DHT22;41626;53.098;6.168;2023-03-05T16:38:36;6.00;99.90
55721;DHT22;41626;53.098;6.168;2023-03-05T16:41:02;6.00;99.90
55721;DHT22;41626;53.098;6.168;2023-03-05T16:43:28;5.90;99.90
55721;DHT22;41626;53.098;6.168;2023-03-05T16:45:53;5.90;99.90
55721;DHT22;41626;53.098;6.168;2023-03-05T16:48:19;5.90;99.90
55721;DHT22;41626;53.098;6.168;2023-03-05T16:50:45;5.80;99.90
55721;DHT22;41626;53.098;6.168;2023-03-05T16:53:10;5.80;99.90
55721;DHT22;41626;53.098;6.168;2023-03-05T16:55:36;5.70;99.90
55721;DHT22;41626;53.098;6.168;2023-03-05T16:58:02;5.60;99.90
55721;DHT22;41626;53.098;6.168;2023-03-05T17:00:28;5.50;99.90
55721;DHT22;41626;53.098;6.168;2023-03-05T17:02:53;5.50;99.90
55721;DHT22;41626;53.098;6.168;2023-03-05T17:05:19;5.40;99.90
55721;DHT22;41626;53.098;6.168;2023-03-05T17:07:45;5.30;99.90
55721;DHT22;41626;53.098;6.168;2023-03-05T17:10:11;5.30;99.90
55721;DHT22;41626;53.098;6.168;2023-03-05T17:12:37;5.20;99.90
55721;DHT22;41626;53.098;6.168;2023-03-05T17:15:04;5.10;99.90
55721;DHT22;41626;53.098;6.168;2023-03-05T17:17:29;5.00;99.90
55721;DHT22;41626;53.098;6.168;2023-03-05T17:19:56;5.00;99.90
55721;DHT22;41626;53.098;6.168;2023-03-05T17:22:22;5.00;99.90
55721;DHT22;41626;53.098;6.168;2023-03-05T17:24:47;4.90;99.90
55721;DHT22;41626;53.098;6.168;2023-03-05T17:27:13;4.90;99.90
55721;DHT22;41626;53.098;6.168;2023-03-05T17:29:43;4.90;99.90